Time;durP1;ratioP1;P1;durP2;ratioP2;P2;SDS_P1;SDS_P2;PMS_P1;PMS_P2;Temp;Humidity;BMP_temperature;BMP_pressure;BME280_temperature;BME280_humidity;BME280_pressure;Samples;Min_cycle;Max_cycle;Signal;HPM_P1;HPM_P2
2023/05/21 00:00:13;;;;;;;11.73;8.00;;;13.50;99.90;;;;;;2085756;28;20189;-69
2023/05/21 00:01:15;;;;;;;10.90;7.67;;;13.50;99.90;;;;;;2085586;28;20199;-69
2023/05/21 00:02:17;;;;;;;10.32;8.07;;;13.50;99.90;;;;;;2087937;28;20192;-69
2023/05/21 00:03:18;;;;;;;10.80;8.13;;;13.40;99.90;;;;;;2084867;28;20208;-69
2023/05/21 00:04:20;;;;;;;11.20;7.87;;;13.40;99.90;;;;;;2083501;28;20300;-69
2023/05/21 00:05:21;;;;;;;14.75;9.05;;;13.40;99.90;;;;;;2081848;28;20251;-69
2023/05/21 00:06:22;;;;;;;14.30;8.52;;;13.40;99.90;;;;;;2083657;28;20651;-69
2023/05/21 00:07:24;;;;;;;12.82;8.70;;;13.40;99.90;;;;;;2084391;28;20267;-69
2023/05/21 00:08:26;;;;;;;12.13;8.63;;;13.40;99.90;;;;;;2084963;28;20686;-70
2023/05/21 00:09:27;;;;;;;13.13;8.75;;;13.40;99.90;;;;;;2082013;28;20225;-70
2023/05/21 00:10:28;;;;;;;13.80;8.80;;;13.40;99.90;;;;;;2079710;28;20228;-69
2023/05/21 00:11:29;;;;;;;10.87;8.53;;;13.40;99.90;;;;;;2077806;28;21354;-69
2023/05/21 00:12:31;;;;;;;13.17;9.73;;;13.40;99.90;;;;;;2079137;28;20220;-69
2023/05/21 00:13:31;;;;;;;13.68;9.90;;;13.20;99.90;;;;;;2082376;28;20587;-70
2023/05/21 00:14:33;;;;;;;13.53;9.10;;;13.20;99.90;;;;;;2080756;28;20225;-70
2023/05/21 00:15:34;;;;;;;13.75;9.38;;;13.10;99.90;;;;;;2072050;28;20236;-69
2023/05/21 00:16:37;;;;;;;16.13;9.65;;;13.10;99.90;;;;;;2080673;28;20800;-69
2023/05/21 00:17:38;;;;;;;14.23;9.50;;;13.10;99.90;;;;;;2084998;28;20307;-70
2023/05/21 00:18:39;;;;;;;15.02;9.30;;;13.20;99.90;;;;;;2076555;28;20283;-69
2023/05/21 00:19:40;;;;;;;15.32;9.93;;;13.20;99.90;;;;;;2063637;28;20575;-70
2023/05/21 00:20:41;;;;;;;16.13;10.33;;;13.20;99.90;;;;;;2072147;28;20232;-70
2023/05/21 00:21:44;;;;;;;17.70;10.30;;;13.20;99.90;;;;;;2076771;28;20216;-69
2023/05/21 00:22:45;;;;;;;14.80;9.60;;;13.20;99.90;;;;;;2077075;28;20622;-69
2023/05/21 00:23:46;;;;;;;14.87;9.40;;;13.10;99.90;;;;;;2084789;28;20260;-70
2023/05/21 00:24:47;;;;;;;20.25;10.13;;;13.10;99.90;;;;;;2084662;28;20216;-70
2023/05/21 00:25:49;;;;;;;12.43;8.67;;;13.10;99.90;;;;;;2076310;28;20677;-69
2023/05/21 00:26:49;;;;;;;13.90;9.13;;;13.10;99.90;;;;;;2072277;28;20301;-69
2023/05/21 00:27:50;;;;;;;13.00;9.03;;;13.00;99.90;;;;;;2080592;28;20213;-70
2023/05/21 00:28:51;;;;;;;13.27;9.27;;;13.00;99.90;;;;;;2082660;28;20232;-69
2023/05/21 00:29:53;;;;;;;14.37;8.63;;;13.10;99.90;;;;;;2085275;28;20632;-70
2023/05/21 00:30:55;;;;;;;13.90;9.23;;;13.10;99.90;;;;;;2085075;28;20219;-69
2023/05/21 00:31:55;;;;;;;15.90;9.00;;;13.10;99.90;;;;;;2085188;28;20299;-70
2023/05/21 00:32:57;;;;;;;12.93;9.10;;;13.20;99.90;;;;;;2072186;28;20799;-70
2023/05/21 00:33:58;;;;;;;13.13;9.43;;;13.20;99.90;;;;;;2071936;28;20257;-70
2023/05/21 00:34:59;;;;;;;12.27;9.03;;;13.30;99.90;;;;;;2076095;28;20231;-70
2023/05/21 00:36:00;;;;;;;16.00;10.10;;;13.20;99.90;;;;;;2076886;28;20234;-70
2023/05/21 00:37:01;;;;;;;13.30;9.82;;;13.20;99.90;;;;;;2096384;28;20219;-70
2023/05/21 00:38:06;;;;;;;14.80;8.93;;;13.20;99.90;;;;;;2088052;28;20211;-70
2023/05/21 00:39:07;;;;;;;12.05;9.07;;;13.20;99.90;;;;;;2078245;28;20425;-70
2023/05/21 00:40:10;;;;;;;13.32;8.45;;;13.20;99.90;;;;;;2079674;28;20232;-69
2023/05/21 00:41:11;;;;;;;12.23;9.00;;;13.20;99.90;;;;;;2078874;28;20177;-70
2023/05/21 00:42:17;;;;;;;11.38;8.35;;;13.20;99.90;;;;;;2079129;28;20243;-69
2023/05/21 00:43:17;;;;;;;12.70;9.32;;;13.00;99.90;;;;;;2078436;28;20188;-70
2023/05/21 00:44:19;;;;;;;14.53;9.03;;;13.10;99.90;;;;;;2084569;28;20585;-69
2023/05/21 00:45:22;;;;;;;13.25;9.23;;;13.10;99.90;;;;;;2086467;28;20188;-69
2023/05/21 00:46:23;;;;;;;13.77;9.18;;;13.10;99.90;;;;;;2072992;28;20601;-71
2023/05/21 00:47:28;;;;;;;15.63;10.73;;;12.90;99.90;;;;;;2077639;28;20239;-69
2023/05/21 00:48:31;;;;;;;15.05;9.73;;;12.90;99.90;;;;;;2081003;28;20347;-69
2023/05/21 00:49:33;;;;;;;17.30;10.57;;;12.80;99.90;;;;;;2076656;28;20219;-69
2023/05/21 00:50:34;;;;;;;15.80;10.52;;;12.80;99.90;;;;;;2072599;28;20231;-69
2023/05/21 00:51:36;;;;;;;16.80;11.07;;;12.80;99.90;;;;;;2085179;28;20223;-69
2023/05/21 00:52:40;;;;;;;15.07;10.23;;;12.80;99.90;;;;;;2088704;28;20257;-69
2023/05/21 00:53:43;;;;;;;14.95;9.98;;;12.90;99.90;;;;;;2074623;28;20659;-70
2023/05/21 00:54:44;;;;;;;13.90;9.98;;;12.90;99.90;;;;;;2078435;28;20709;-70
2023/05/21 00:55:45;;;;;;;15.00;10.20;;;13.00;99.90;;;;;;2073824;28;20283;-70
2023/05/21 00:56:46;;;;;;;16.65;10.13;;;12.90;99.90;;;;;;2063579;28;20233;-69
2023/05/21 00:57:48;;;;;;;14.20;9.50;;;12.90;99.90;;;;;;2075807;28;20225;-69
2023/05/21 00:58:54;;;;;;;13.98;9.40;;;12.90;99.90;;;;;;2079888;28;20221;-69
2023/05/21 00:59:55;;;;;;;13.50;9.52;;;13.00;99.90;;;;;;2078821;28;20696;-70
2023/05/21 01:00:56;;;;;;;15.17;9.53;;;12.90;99.90;;;;;;2067924;28;20225;-69
2023/05/21 01:02:02;;;;;;;14.77;10.67;;;12.90;99.90;;;;;;2068036;28;20228;-69
2023/05/21 01:03:04;;;;;;;15.15;10.05;;;12.90;99.90;;;;;;2076260;28;20221;-70
2023/05/21 01:04:05;;;;;;;14.45;9.18;;;12.90;99.90;;;;;;2087612;28;20199;-70
2023/05/21 01:05:06;;;;;;;12.83;9.30;;;12.90;99.90;;;;;;2076894;28;20194;-70
2023/05/21 01:06:08;;;;;;;13.33;9.53;;;12.90;99.90;;;;;;2088069;28;20176;-69
2023/05/21 01:07:11;;;;;;;13.25;9.07;;;12.90;99.90;;;;;;2086855;28;20457;-70
2023/05/21 01:08:12;;;;;;;15.82;11.07;;;12.90;99.90;;;;;;2085322;28;20559;-69
2023/05/21 01:09:13;;;;;;;17.47;10.67;;;12.90;99.90;;;;;;2088107;28;20238;-69
2023/05/21 01:10:14;;;;;;;15.40;10.35;;;12.90;99.90;;;;;;2080370;28;20706;-69
2023/05/21 01:11:16;;;;;;;12.23;9.53;;;12.90;99.90;;;;;;2079398;28;20272;-69
2023/05/21 01:12:18;;;;;;;16.40;9.70;;;13.00;99.90;;;;;;2088548;28;20194;-69
2023/05/21 01:13:23;;;;;;;15.73;9.90;;;13.00;99.90;;;;;;2083141;28;20181;-70
2023/05/21 01:14:24;;;;;;;11.60;8.55;;;13.60;99.90;;;;;;2084027;28;20312;-69
2023/05/21 01:15:26;;;;;;;16.10;10.27;;;13.00;99.90;;;;;;2076020;28;20243;-69
2023/05/21 01:16:26;;;;;;;12.85;9.43;;;13.00;99.90;;;;;;2069193;28;20301;-69
2023/05/21 01:17:30;;;;;;;11.50;8.83;;;13.00;99.90;;;;;;2080373;28;20232;-68
2023/05/21 01:18:33;;;;;;;14.63;9.82;;;13.00;99.90;;;;;;2072918;28;20214;-69
2023/05/21 01:19:35;;;;;;;13.40;9.70;;;13.00;99.90;;;;;;2078244;28;20221;-69
2023/05/21 01:20:36;;;;;;;17.33;10.27;;;13.00;99.90;;;;;;2079934;28;20224;-69
2023/05/21 01:21:43;;;;;;;16.45;10.35;;;13.00;99.90;;;;;;2085530;28;20239;-69
2023/05/21 01:22:55;;;;;;;14.23;9.48;;;13.00;99.90;;;;;;2076219;28;20645;-69
2023/05/21 01:23:58;;;;;;;11.73;8.93;;;13.00;99.90;;;;;;2072746;28;20688;-69
2023/05/21 01:25:01;;;;;;;13.65;10.18;;;13.00;99.90;;;;;;2080024;28;20224;-70
2023/05/21 01:26:02;;;;;;;14.43;10.40;;;13.00;99.90;;;;;;2069225;28;20575;-70
2023/05/21 01:27:06;;;;;;;13.90;9.27;;;13.00;99.90;;;;;;2078339;28;20288;-69
2023/05/21 01:28:08;;;;;;;15.88;10.10;;;13.00;99.90;;;;;;2079549;28;20192;-69
2023/05/21 01:29:13;;;;;;;16.27;10.57;;;13.00;99.90;;;;;;2073962;28;20204;-69
2023/05/21 01:30:18;;;;;;;15.30;9.90;;;13.00;99.90;;;;;;2087303;28;20314;-70
2023/05/21 01:32:18;;;;;;;15.10;10.48;;;13.00;99.90;;;;;;2081221;28;20213;-69
2023/05/21 01:33:25;;;;;;;14.73;9.57;;;13.00;99.90;;;;;;2083507;28;20255;-70
2023/05/21 01:34:55;;;;;;;12.95;9.43;;;12.90;99.90;;;;;;2079673;28;20232;-69
2023/05/21 01:36:06;;;;;;;15.90;9.70;;;12.90;99.90;;;;;;2083818;28;20216;-69
2023/05/21 01:37:17;;;;;;;15.32;10.13;;;12.90;99.90;;;;;;2079020;28;20264;-70
2023/05/21 01:38:28;;;;;;;15.63;10.50;;;12.90;99.90;;;;;;2070142;28;20213;-69
2023/05/21 01:39:37;;;;;;;17.02;10.27;;;12.80;99.90;;;;;;2075315;28;20214;-69
2023/05/21 01:41:02;;;;;;;14.93;10.38;;;12.80;99.90;;;;;;2070300;28;20723;-69
2023/05/21 01:42:08;;;;;;;17.48;10.90;;;12.80;99.90;;;;;;2070538;28;20235;-69
2023/05/21 01:43:10;;;;;;;16.83;10.05;;;12.70;99.90;;;;;;2072557;28;20192;-69
2023/05/21 01:44:12;;;;;;;16.33;9.95;;;12.70;99.90;;;;;;2064915;28;20218;-69
2023/05/21 01:45:16;;;;;;;16.27;10.73;;;12.80;99.90;;;;;;2070197;28;20173;-69
2023/05/21 01:46:23;;;;;;;12.73;9.43;;;12.80;99.90;;;;;;2055919;28;20561;-69
2023/05/21 01:47:28;;;;;;;14.25;9.82;;;12.70;99.90;;;;;;2076039;28;20734;-69
2023/05/21 01:48:30;;;;;;;15.73;10.18;;;12.70;99.90;;;;;;2080194;28;20225;-69
2023/05/21 01:49:31;;;;;;;13.88;9.60;;;12.70;99.90;;;;;;2076792;28;20217;-69
2023/05/21 01:50:34;;;;;;;16.35;10.60;;;12.70;99.90;;;;;;2071846;28;20220;-69
2023/05/21 01:51:36;;;;;;;14.93;10.50;;;12.70;99.90;;;;;;2068401;28;20870;-69
2023/05/21 01:52:37;;;;;;;14.60;10.63;;;12.70;99.90;;;;;;2073193;28;20221;-69
2023/05/21 01:53:39;;;;;;;17.27;11.63;;;12.70;99.90;;;;;;2066217;28;20361;-68
2023/05/21 01:54:40;;;;;;;17.08;12.32;;;12.60;99.90;;;;;;2071543;28;20657;-69
2023/05/21 01:55:41;;;;;;;18.30;11.07;;;12.70;99.90;;;;;;2073790;28;20222;-71
2023/05/21 01:56:41;;;;;;;16.03;10.67;;;12.70;99.90;;;;;;2077269;28;20233;-69
2023/05/21 01:57:42;;;;;;;15.97;9.83;;;12.70;99.90;;;;;;2076596;28;20263;-69
2023/05/21 01:58:43;;;;;;;15.07;10.43;;;12.70;99.90;;;;;;2063178;28;20305;-69
2023/05/21 01:59:44;;;;;;;14.57;10.53;;;12.70;99.90;;;;;;2071131;28;20229;-69
2023/05/21 02:00:45;;;;;;;16.70;10.65;;;12.70;99.90;;;;;;2094745;28;20656;-69
2023/05/21 02:01:46;;;;;;;17.05;10.73;;;12.60;99.90;;;;;;2088402;28;20581;-68
2023/05/21 02:02:47;;;;;;;15.03;10.23;;;12.60;99.90;;;;;;2076965;28;20237;-69
2023/05/21 02:03:48;;;;;;;17.25;11.50;;;12.60;99.90;;;;;;2075161;28;20232;-68
2023/05/21 02:04:49;;;;;;;15.33;10.90;;;12.50;99.90;;;;;;2077503;28;20264;-69
2023/05/21 02:05:50;;;;;;;16.40;11.27;;;12.60;99.90;;;;;;2088091;28;20293;-69
2023/05/21 02:06:53;;;;;;;16.00;10.70;;;12.70;99.90;;;;;;2073499;28;20229;-69
2023/05/21 02:07:54;;;;;;;14.68;10.32;;;12.60;99.90;;;;;;2072845;28;20354;-68
2023/05/21 02:08:55;;;;;;;14.90;10.20;;;12.60;99.90;;;;;;2078311;28;20217;-69
2023/05/21 02:09:56;;;;;;;13.88;10.27;;;12.60;99.90;;;;;;2072127;28;20276;-69
2023/05/21 02:10:56;;;;;;;15.90;11.50;;;12.60;99.90;;;;;;2076698;28;20295;-69
2023/05/21 02:11:57;;;;;;;15.63;10.70;;;12.70;99.90;;;;;;2079388;28;20217;-68
2023/05/21 02:12:58;;;;;;;14.20;9.33;;;12.70;99.90;;;;;;2072477;28;20217;-69
2023/05/21 02:13:59;;;;;;;14.67;10.40;;;12.70;99.90;;;;;;2078548;28;20225;-69
2023/05/21 02:15:01;;;;;;;16.05;10.75;;;12.70;99.90;;;;;;2079209;28;20582;-69
2023/05/21 02:16:02;;;;;;;15.35;9.90;;;12.70;99.90;;;;;;2090953;28;20228;-69
2023/05/21 02:17:04;;;;;;;14.65;9.82;;;12.70;99.90;;;;;;2091207;28;20781;-69
2023/05/21 02:18:05;;;;;;;19.20;10.90;;;12.60;99.90;;;;;;2092494;28;20191;-69
2023/05/21 02:19:09;;;;;;;15.40;11.70;;;12.60;99.90;;;;;;2078834;28;20204;-69
2023/05/21 02:20:10;;;;;;;15.55;10.82;;;12.60;99.90;;;;;;2068171;28;20276;-70
2023/05/21 02:21:11;;;;;;;15.05;10.95;;;12.70;99.90;;;;;;2078835;28;20203;-69
2023/05/21 02:22:12;;;;;;;15.88;11.18;;;12.70;99.90;;;;;;2092541;28;20273;-69
2023/05/21 02:23:13;;;;;;;15.50;10.57;;;12.60;99.90;;;;;;2084184;28;20247;-69
2023/05/21 02:24:14;;;;;;;17.20;11.13;;;12.60;99.90;;;;;;2077496;28;20209;-69
2023/05/21 02:25:17;;;;;;;17.13;11.63;;;12.60;99.90;;;;;;2087465;28;20654;-69
2023/05/21 02:26:29;;;;;;;17.67;10.93;;;12.60;99.90;;;;;;2086085;28;20195;-69
2023/05/21 02:27:31;;;;;;;21.02;11.77;;;12.70;99.90;;;;;;2082767;28;20310;-69
2023/05/21 02:28:32;;;;;;;17.50;11.90;;;12.60;99.90;;;;;;2086340;28;20220;-69
2023/05/21 02:29:33;;;;;;;16.85;11.10;;;12.60;99.90;;;;;;2078995;28;20736;-69
2023/05/21 02:30:34;;;;;;;15.10;10.80;;;12.60;99.90;;;;;;2087924;28;20216;-69
2023/05/21 02:31:36;;;;;;;15.60;11.00;;;12.70;99.90;;;;;;2087341;28;20227;-69
2023/05/21 02:32:41;;;;;;;16.48;10.77;;;12.70;99.90;;;;;;2087709;28;20219;-69
2023/05/21 02:33:42;;;;;;;17.27;11.25;;;12.70;99.90;;;;;;2092805;28;20223;-69
2023/05/21 02:34:43;;;;;;;16.77;10.77;;;12.70;99.90;;;;;;2081945;28;20228;-69
2023/05/21 02:35:45;;;;;;;19.08;11.23;;;12.70;99.90;;;;;;2076023;28;20287;-70
2023/05/21 02:36:51;;;;;;;16.85;11.90;;;12.70;99.90;;;;;;2093237;28;20219;-69
2023/05/21 02:37:51;;;;;;;17.15;11.05;;;12.70;99.90;;;;;;2093692;28;20257;-69
2023/05/21 02:38:52;;;;;;;16.77;11.43;;;12.70;99.90;;;;;;2093198;28;20243;-69
2023/05/21 02:39:55;;;;;;;19.27;11.77;;;12.70;99.90;;;;;;2091974;28;20255;-69
2023/05/21 02:40:56;;;;;;;17.00;10.77;;;12.80;99.90;;;;;;2083250;28;20310;-69
2023/05/21 02:41:57;;;;;;;20.40;11.43;;;12.80;99.90;;;;;;2085992;28;20220;-69
2023/05/21 02:42:57;;;;;;;15.73;10.83;;;12.80;99.90;;;;;;2094541;28;20334;-69
2023/05/21 02:43:59;;;;;;;16.75;11.52;;;12.80;99.90;;;;;;2086729;28;20255;-69
2023/05/21 02:44:59;;;;;;;19.70;11.30;;;12.70;99.90;;;;;;2079103;28;20236;-69
2023/05/21 02:46:00;;;;;;;19.37;11.73;;;12.70;99.90;;;;;;2083086;28;20323;-69
2023/05/21 02:47:01;;;;;;;17.33;10.63;;;12.70;99.90;;;;;;2082751;28;20684;-71
2023/05/21 02:48:02;;;;;;;16.43;11.57;;;12.80;99.90;;;;;;2087393;28;20176;-70
2023/05/21 02:49:02;;;;;;;18.03;10.87;;;12.70;99.90;;;;;;2094195;28;20604;-69
2023/05/21 02:50:07;;;;;;;15.33;11.30;;;12.70;99.90;;;;;;2083670;28;20173;-70
2023/05/21 02:51:09;;;;;;;16.67;11.00;;;12.80;99.90;;;;;;2087330;28;20210;-69
2023/05/21 02:52:10;;;;;;;17.98;11.40;;;12.70;99.90;;;;;;2091337;28;20187;-70
2023/05/21 02:53:11;;;;;;;16.47;10.77;;;12.70;99.90;;;;;;2095508;28;20211;-69
2023/05/21 02:54:11;;;;;;;17.93;11.27;;;12.70;99.90;;;;;;2085507;28;20308;-69
2023/05/21 02:55:12;;;;;;;14.60;10.90;;;12.60;99.90;;;;;;2083601;28;20675;-69
2023/05/21 02:56:14;;;;;;;19.73;11.97;;;12.60;99.90;;;;;;2094974;28;20283;-69
2023/05/21 02:57:17;;;;;;;16.90;11.48;;;12.60;99.90;;;;;;2092502;28;20187;-70
2023/05/21 02:58:17;;;;;;;15.60;11.13;;;12.60;99.90;;;;;;2093806;28;20199;-69
2023/05/21 02:59:18;;;;;;;18.07;11.97;;;12.60;99.90;;;;;;2087369;28;20282;-69
2023/05/21 03:00:19;;;;;;;17.53;11.67;;;12.60;99.90;;;;;;2087312;28;20184;-69
2023/05/21 03:01:20;;;;;;;20.50;12.17;;;12.60;99.90;;;;;;2092654;28;20744;-69
2023/05/21 03:02:21;;;;;;;18.37;11.60;;;12.50;99.90;;;;;;2077378;28;20233;-70
2023/05/21 03:03:22;;;;;;;15.85;11.52;;;12.60;99.90;;;;;;2070350;28;20235;-70
2023/05/21 03:04:23;;;;;;;18.37;11.73;;;12.60;99.90;;;;;;2062764;28;20239;-69
2023/05/21 03:05:24;;;;;;;17.45;11.95;;;12.50;99.90;;;;;;2082633;28;20586;-69
2023/05/21 03:06:25;;;;;;;15.23;11.27;;;12.50;99.90;;;;;;2091804;28;20240;-69
2023/05/21 03:07:26;;;;;;;15.37;11.47;;;12.60;99.90;;;;;;2087531;28;20301;-69
2023/05/21 03:08:27;;;;;;;16.40;10.97;;;12.60;99.90;;;;;;2079430;28;20235;-69
2023/05/21 03:09:28;;;;;;;16.33;11.20;;;12.60;99.90;;;;;;2078878;28;20260;-69
2023/05/21 03:10:29;;;;;;;18.50;11.90;;;12.60;99.90;;;;;;2083572;28;20228;-69
2023/05/21 03:11:30;;;;;;;17.63;12.20;;;12.60;99.90;;;;;;2087329;28;20472;-70
2023/05/21 03:12:30;;;;;;;20.05;11.95;;;12.60;99.90;;;;;;2083298;28;20233;-69
2023/05/21 03:13:31;;;;;;;18.93;11.83;;;12.60;99.90;;;;;;2070782;28;20217;-69
2023/05/21 03:14:32;;;;;;;17.03;11.67;;;12.50;99.90;;;;;;2075249;28;20308;-69
2023/05/21 03:15:33;;;;;;;16.70;11.90;;;12.60;99.90;;;;;;2087600;28;20230;-69
2023/05/21 03:16:34;;;;;;;17.43;11.23;;;12.60;99.90;;;;;;2093020;28;20258;-69
2023/05/21 03:17:35;;;;;;;18.13;12.02;;;12.50;99.90;;;;;;2085982;28;20216;-69
2023/05/21 03:18:36;;;;;;;18.33;12.57;;;12.50;99.90;;;;;;2085364;28;20212;-69
2023/05/21 03:19:37;;;;;;;20.13;11.87;;;12.50;99.90;;;;;;2087197;28;20266;-69
2023/05/21 03:20:42;;;;;;;19.43;11.73;;;12.50;99.90;;;;;;2079212;28;20216;-69
2023/05/21 03:21:43;;;;;;;18.83;11.48;;;12.50;99.90;;;;;;2071447;28;20241;-69
2023/05/21 03:22:45;;;;;;;18.63;12.77;;;12.50;99.90;;;;;;2084657;28;20226;-69
2023/05/21 03:23:46;;;;;;;21.42;11.60;;;12.50;99.90;;;;;;2089376;28;20273;-69
2023/05/21 03:24:47;;;;;;;14.75;10.52;;;12.50;99.90;;;;;;2079703;28;20275;-69
2023/05/21 03:25:48;;;;;;;18.70;11.73;;;12.50;99.90;;;;;;2086962;28;20264;-69
2023/05/21 03:26:49;;;;;;;18.57;11.53;;;12.40;99.90;;;;;;2093267;28;20837;-69
2023/05/21 03:27:51;;;;;;;19.92;12.00;;;12.40;99.90;;;;;;2091957;28;20226;-69
2023/05/21 03:28:52;;;;;;;20.35;11.88;;;12.40;99.90;;;;;;2082222;28;20296;-69
2023/05/21 03:29:54;;;;;;;19.70;11.82;;;12.50;99.90;;;;;;2074880;28;20217;-69
2023/05/21 03:30:55;;;;;;;21.55;13.27;;;12.40;99.90;;;;;;2085957;28;20741;-69
2023/05/21 03:31:56;;;;;;;19.80;12.10;;;12.40;99.90;;;;;;2087234;28;20287;-69
2023/05/21 03:32:58;;;;;;;18.45;11.68;;;12.30;99.90;;;;;;2087277;28;20753;-69
2023/05/21 03:33:59;;;;;;;18.50;10.82;;;12.30;99.90;;;;;;2084487;28;20232;-69
2023/05/21 03:35:00;;;;;;;16.87;11.73;;;12.30;99.90;;;;;;2076911;28;20234;-69
2023/05/21 03:36:00;;;;;;;17.63;11.30;;;12.30;99.90;;;;;;2095865;28;20281;-69
2023/05/21 03:37:01;;;;;;;17.77;11.67;;;12.40;99.90;;;;;;2078217;28;20220;-70
2023/05/21 03:38:02;;;;;;;19.40;11.93;;;12.40;99.90;;;;;;2077979;28;20185;-70
2023/05/21 03:39:05;;;;;;;17.23;11.70;;;12.30;99.90;;;;;;2079305;28;20243;-70
2023/05/21 03:40:07;;;;;;;18.45;11.15;;;12.30;99.90;;;;;;2079150;28;20224;-69
2023/05/21 03:41:08;;;;;;;18.85;11.98;;;12.30;99.90;;;;;;2078757;28;20268;-69
2023/05/21 03:42:09;;;;;;;20.53;13.13;;;12.30;99.90;;;;;;2085749;28;20618;-70
2023/05/21 03:43:09;;;;;;;16.33;10.83;;;12.00;99.90;;;;;;2084820;28;20189;-70
2023/05/21 03:44:10;;;;;;;19.13;12.27;;;12.30;99.90;;;;;;2083448;28;20217;-69
2023/05/21 03:45:11;;;;;;;19.80;12.80;;;12.30;99.90;;;;;;2080292;28;20200;-69
2023/05/21 03:46:11;;;;;;;18.07;11.63;;;12.30;99.90;;;;;;2079539;28;20185;-69
2023/05/21 03:47:12;;;;;;;18.70;12.40;;;12.30;99.90;;;;;;2096612;28;20179;-70
2023/05/21 03:48:13;;;;;;;17.70;12.43;;;12.30;99.90;;;;;;2094258;28;20192;-69
2023/05/21 03:49:14;;;;;;;19.60;12.17;;;12.20;99.90;;;;;;2094702;28;20279;-69
2023/05/21 03:50:15;;;;;;;18.10;12.17;;;12.30;99.90;;;;;;2094390;28;20189;-69
2023/05/21 03:51:19;;;;;;;17.90;11.65;;;12.20;99.90;;;;;;2084086;28;20524;-69
2023/05/21 03:52:20;;;;;;;21.67;13.07;;;12.20;99.90;;;;;;2093130;28;20698;-69
2023/05/21 03:53:21;;;;;;;19.30;12.07;;;12.30;99.90;;;;;;2082677;28;20227;-70
2023/05/21 03:54:21;;;;;;;18.70;12.07;;;12.30;99.90;;;;;;2077321;28;20236;-69
2023/05/21 03:55:22;;;;;;;19.60;12.43;;;12.30;99.90;;;;;;2089951;28;20231;-69
2023/05/21 03:56:23;;;;;;;19.50;12.27;;;12.30;99.90;;;;;;2085664;28;20228;-69
2023/05/21 03:57:24;;;;;;;18.27;12.33;;;12.20;99.90;;;;;;2085640;28;20227;-69
2023/05/21 03:58:25;;;;;;;17.83;12.40;;;12.20;99.90;;;;;;2085147;28;20228;-69
2023/05/21 03:59:26;;;;;;;14.32;10.27;;;12.20;99.90;;;;;;2077196;28;20264;-69
2023/05/21 04:00:27;;;;;;;14.90;10.40;;;12.20;99.90;;;;;;2072518;28;20233;-70
2023/05/21 04:01:29;;;;;;;15.23;10.33;;;12.20;99.90;;;;;;2076776;28;20700;-69
2023/05/21 04:02:31;;;;;;;16.60;11.60;;;12.10;99.90;;;;;;2085767;28;20259;-69
2023/05/21 04:03:34;;;;;;;16.40;11.10;;;12.10;99.90;;;;;;2076138;28;20216;-69
2023/05/21 04:04:35;;;;;;;16.73;11.23;;;12.10;99.90;;;;;;2069494;28;21013;-69
2023/05/21 04:05:36;;;;;;;16.63;10.85;;;12.00;99.90;;;;;;2076567;28;20308;-70
2023/05/21 04:06:37;;;;;;;15.87;9.90;;;12.00;99.90;;;;;;2089263;28;20212;-69
2023/05/21 04:07:38;;;;;;;15.53;11.03;;;11.90;99.90;;;;;;2077270;28;20312;-69
2023/05/21 04:08:39;;;;;;;15.88;10.70;;;11.90;99.90;;;;;;2080718;28;20235;-70
2023/05/21 04:09:40;;;;;;;15.73;10.40;;;11.90;99.90;;;;;;2094687;28;20680;-69
2023/05/21 04:10:41;;;;;;;16.27;11.10;;;11.90;99.90;;;;;;2078781;28;20221;-69
2023/05/21 04:11:42;;;;;;;19.40;11.47;;;11.90;99.90;;;;;;2072400;28;20218;-69
2023/05/21 04:12:43;;;;;;;17.07;11.33;;;11.90;99.90;;;;;;2089645;28;20764;-69
2023/05/21 04:13:44;;;;;;;17.63;11.05;;;11.80;99.90;;;;;;2089976;28;20717;-69
2023/05/21 04:14:46;;;;;;;17.17;10.85;;;11.80;99.90;;;;;;2086035;28;20306;-69
2023/05/21 04:15:47;;;;;;;20.30;11.00;;;11.80;99.90;;;;;;2071909;28;20316;-69
2023/05/21 04:16:48;;;;;;;18.63;10.85;;;11.90;99.90;;;;;;2079582;28;20256;-69
2023/05/21 04:17:49;;;;;;;18.23;11.38;;;12.00;99.90;;;;;;2080220;28;20220;-69
2023/05/21 04:18:50;;;;;;;15.13;11.30;;;12.00;99.90;;;;;;2079172;28;20657;-69
2023/05/21 04:19:51;;;;;;;16.00;10.83;;;12.00;99.90;;;;;;2080188;28;20223;-70
2023/05/21 04:20:52;;;;;;;19.42;11.60;;;12.00;99.90;;;;;;2077274;28;20220;-69
2023/05/21 04:21:53;;;;;;;15.18;10.75;;;12.00;99.90;;;;;;2088051;28;20251;-69
2023/05/21 04:22:53;;;;;;;16.83;11.50;;;12.10;99.90;;;;;;2084238;28;20282;-69
2023/05/21 04:23:56;;;;;;;16.40;11.53;;;12.10;99.90;;;;;;2068155;28;20400;-69
2023/05/21 04:24:58;;;;;;;15.52;10.98;;;12.10;99.90;;;;;;2080751;28;20757;-69
2023/05/21 04:25:59;;;;;;;17.75;11.95;;;12.20;99.90;;;;;;2071826;28;20228;-69
2023/05/21 04:26:59;;;;;;;18.53;12.20;;;12.20;99.90;;;;;;2069241;28;20751;-70
2023/05/21 04:28:01;;;;;;;15.43;11.07;;;12.20;99.90;;;;;;2080088;28;20224;-70
2023/05/21 04:29:04;;;;;;;17.60;10.80;;;12.30;99.90;;;;;;2079010;28;20244;-70
2023/05/21 04:30:06;;;;;;;17.20;11.18;;;12.30;99.90;;;;;;2078848;28;20219;-70
2023/05/21 04:31:07;;;;;;;19.58;11.88;;;12.30;99.90;;;;;;2072563;28;20194;-70
2023/05/21 04:32:08;;;;;;;19.13;12.45;;;12.40;99.90;;;;;;2076038;28;20185;-70
2023/05/21 04:33:09;;;;;;;18.40;11.63;;;12.30;99.90;;;;;;2087612;28;20270;-70
2023/05/21 04:34:09;;;;;;;18.67;11.83;;;12.40;99.90;;;;;;2081751;28;20298;-70
2023/05/21 04:35:13;;;;;;;22.23;12.13;;;12.50;99.90;;;;;;2078004;28;20279;-70
2023/05/21 04:36:15;;;;;;;18.30;12.60;;;12.60;99.90;;;;;;2070652;28;20293;-69
2023/05/21 04:37:17;;;;;;;19.08;12.48;;;12.60;99.90;;;;;;2078062;28;20556;-70
2023/05/21 04:38:18;;;;;;;18.98;11.27;;;12.60;99.90;;;;;;2086871;28;20196;-70
2023/05/21 04:39:19;;;;;;;17.40;10.93;;;12.60;99.90;;;;;;2084159;28;20196;-70
2023/05/21 04:40:23;;;;;;;20.63;12.67;;;12.60;99.90;;;;;;2085978;28;20691;-70
2023/05/21 04:41:23;;;;;;;18.48;11.68;;;12.70;99.90;;;;;;2089275;28;20231;-69
2023/05/21 04:42:25;;;;;;;19.53;12.60;;;12.80;99.90;;;;;;2086498;28;21032;-69
2023/05/21 04:43:25;;;;;;;16.83;11.60;;;12.80;99.90;;;;;;2084915;28;20228;-69
2023/05/21 04:44:28;;;;;;;18.80;10.75;;;12.80;99.90;;;;;;2077523;28;20367;-69
2023/05/21 04:45:29;;;;;;;18.15;12.05;;;12.80;99.90;;;;;;2067443;28;20226;-69
2023/05/21 04:46:30;;;;;;;17.27;11.50;;;12.90;99.90;;;;;;2075012;28;20230;-70
2023/05/21 04:47:34;;;;;;;18.77;11.82;;;12.90;99.90;;;;;;2085055;28;20212;-70
2023/05/21 04:48:34;;;;;;;17.42;11.55;;;13.00;99.90;;;;;;2076134;28;20228;-70
2023/05/21 04:49:35;;;;;;;15.77;11.47;;;13.10;99.90;;;;;;2080356;28;20224;-70
2023/05/21 04:50:36;;;;;;;16.40;11.87;;;13.10;99.90;;;;;;2070359;28;20221;-70
2023/05/21 04:51:37;;;;;;;16.83;12.00;;;13.00;99.90;;;;;;2077278;28;20228;-70
2023/05/21 04:52:40;;;;;;;17.47;11.20;;;13.00;99.90;;;;;;2077202;28;20224;-70
2023/05/21 04:53:41;;;;;;;16.10;10.60;;;13.00;99.90;;;;;;2085099;28;20608;-70
2023/05/21 04:54:44;;;;;;;20.17;12.55;;;13.00;99.90;;;;;;2093322;28;20604;-70
2023/05/21 04:55:45;;;;;;;16.30;11.40;;;13.00;99.90;;;;;;2085092;28;20655;-70
2023/05/21 04:56:47;;;;;;;15.55;11.40;;;13.10;99.90;;;;;;2088453;28;20228;-70
2023/05/21 04:57:48;;;;;;;19.27;12.73;;;13.20;99.90;;;;;;2096432;28;20227;-70
2023/05/21 04:58:49;;;;;;;18.17;12.00;;;13.30;99.90;;;;;;2093925;28;20219;-70
2023/05/21 04:59:51;;;;;;;17.77;13.13;;;13.20;99.90;;;;;;2084199;28;20228;-70
2023/05/21 05:00:52;;;;;;;18.33;12.63;;;13.20;99.90;;;;;;2084709;28;20220;-70
2023/05/21 05:01:53;;;;;;;16.33;11.48;;;13.20;99.90;;;;;;2092761;28;20239;-70
2023/05/21 05:02:53;;;;;;;16.53;11.80;;;13.30;99.90;;;;;;2076755;28;20231;-70
2023/05/21 05:03:55;;;;;;;18.53;12.90;;;13.30;99.90;;;;;;2083778;28;20785;-70
2023/05/21 05:04:55;;;;;;;15.40;11.70;;;13.40;99.90;;;;;;2078805;28;20287;-70
2023/05/21 05:05:56;;;;;;;14.57;10.60;;;13.40;99.90;;;;;;2080052;28;20302;-70
2023/05/21 05:06:57;;;;;;;17.00;11.60;;;13.40;99.90;;;;;;2086920;28;20682;-70
2023/05/21 05:07:58;;;;;;;15.77;10.60;;;13.40;99.90;;;;;;2067785;28;20231;-70
2023/05/21 05:08:58;;;;;;;15.27;10.53;;;13.40;99.90;;;;;;2078242;28;20229;-70
2023/05/21 05:09:59;;;;;;;18.90;11.23;;;13.40;99.90;;;;;;2072025;28;20225;-70
2023/05/21 05:11:00;;;;;;;13.67;9.63;;;13.50;99.90;;;;;;2071726;28;20217;-70
2023/05/21 05:12:01;;;;;;;14.13;10.23;;;13.60;99.90;;;;;;2049951;28;20245;-71
2023/05/21 05:13:02;;;;;;;14.20;10.47;;;13.70;99.90;;;;;;2067689;28;20710;-71
2023/05/21 05:14:02;;;;;;;15.67;10.13;;;13.70;99.90;;;;;;2087568;28;20212;-71
2023/05/21 05:15:03;;;;;;;12.90;9.33;;;13.70;99.90;;;;;;2072193;28;20703;-70
2023/05/21 05:16:04;;;;;;;12.33;9.40;;;13.70;99.90;;;;;;2087632;28;20284;-71